Archival Weather

Chicago O'Hare International

Chicago, Illinois (KORD)

Report from: Saturday, December 31, 2022 8:51 AM CST
Current time: Friday, June 21, 2024 7:56 PM CDT

Current weather – Weather history – Daily summaries
Weather forecast

Temperature-2.2°C (28.0°F)
Dew point-5.0°C (23.0°F)
Winds Calm
Visibility10 mi. (16.1 km)
Clouds Ceiling: Broken clouds 18,000 ft. (5,486 m)
Broken clouds 25,000 ft. (7,620 m)
Altimeter29.94 in.Hg (1014 mB)
Relative humidity81 %
Density altitude-2,085 ft. (-636 m)
Sea-level pressure101.4 kPa (1014 mB, 29.96 in.Hg)
Remarks Automated weather observing station with precipitation discriminator
Pressure rising more quickly
Flight conditions Visual Meteorological Conditions
Raw dataKORD 311451Z 00000KT 10SM BKN180 BKN250 M02/M05 A2994 RMK AO2 SLP144 T10221050 53003
An error has occurred. This application may no longer respond until reloaded. Reload 🗙